36.8°F
Current conditions from King Hill
Updated every 5 minutes
 
  Saturday November 22, 2014

Station Historical Data
Daily Summary for September 18, 2011 Units:  Metric    English   Both
« Previous Day
Next Day »
Daily Weekly Monthly Yearly Custom
  High: Low: Average:
Temperature: 19.9 °C 3.3 °C 10.6 °C
Dew Point: 10.6 °C 2.4 °C 6.1 °C
Humidity: 96% 43% 77%
Wind Speed: 6.4km/h 0km/h 2.3km/h
Wind Gust: 14.5km/h - -
Wind- - SSW
Pressure: 1032.7 hPa 1027.7 hPa -
Precipitation: 0 mm    
Historical Graphs
 
 
Tabular Data for September 18, 2011
Time Temperature Dew Point Pressure Wind Wind Speed Wind Gust Humidity Daily Rainfall
00:00 5.3 °C 4.2 °C 1031 hPa Calm     92% 0 mm
00:05 5.3 °C 4.1 °C 1031 hPa Calm     92% 0 mm
00:10 5.3 °C 4.3 °C 1031 hPa Calm     93% 0 mm
00:15 5.2 °C 4.1 °C 1031 hPa Calm     92% 0 mm
00:20 5.1 °C 3.9 °C 1031 hPa Calm     92% 0 mm
00:25 5.1 °C 4.1 °C 1031 hPa Calm     93% 0 mm
00:30 5.1 °C 4 °C 1031 hPa Calm     93% 0 mm
00:35 5.2 °C 4.1 °C 1031 hPa Calm     93% 0 mm
00:40 5.1 °C 4.1 °C 1031 hPa Calm     93% 0 mm
00:45 5.1 °C 4 °C 1031.4 hPa Calm     93% 0 mm
00:50 5.1 °C 4 °C 1031.4 hPa Calm     93% 0 mm
00:55 5 °C 3.9 °C 1031.4 hPa Calm     93% 0 mm
01:00 4.9 °C 3.8 °C 1031.4 hPa Calm     93% 0 mm
01:05 4.9 °C 3.8 °C 1031.4 hPa Calm     93% 0 mm
01:15 4.9 °C 3.8 °C 1031.4 hPa Calm     93% 0 mm
01:20 4.9 °C 4.1 °C 1031.4 hPa Calm     94% 0 mm
01:25 5.1 °C 4.2 °C 1031.4 hPa Calm     94% 0 mm
01:35 5.1 °C 4.2 °C 1031.4 hPa Calm     94% 0 mm
01:45 5.5 °C 4.6 °C 1031.4 hPa Calm     94% 0 mm
01:50 5.6 °C 4.9 °C 1031.4 hPa Calm     95% 0 mm
01:55 5.6 °C 4.9 °C 1031.4 hPa Calm     95% 0 mm
02:00 5.6 °C 4.9 °C 1031.4 hPa Calm     95% 0 mm
02:05 5.6 °C 4.7 °C 1031.4 hPa Calm     94% 0 mm
02:10 5.5 °C 4.8 °C 1031.4 hPa Calm     95% 0 mm
02:15 5.6 °C 4.8 °C 1031.4 hPa Calm     95% 0 mm
02:20 5.6 °C 4.8 °C 1031.4 hPa Calm     95% 0 mm
02:25 5.5 °C 4.8 °C 1031 hPa Calm     95% 0 mm
02:30 5.4 °C 4.6 °C 1031 hPa Calm     94% 0 mm
02:40 5.3 °C 4.4 °C 1031.4 hPa Calm     94% 0 mm
02:45 5.3 °C 4.4 °C 1031.4 hPa Calm     94% 0 mm
02:50 5.3 °C 4.4 °C 1031.4 hPa Calm     94% 0 mm
02:55 5.2 °C 4.4 °C 1031.4 hPa Calm     95% 0 mm
03:00 5.1 °C 4.2 °C 1031.4 hPa Calm     94% 0 mm
03:05 5.1 °C 4.2 °C 1031.4 hPa Calm     94% 0 mm
03:10 4.9 °C 4 °C 1031.4 hPa Calm     94% 0 mm
03:15 4.7 °C 3.8 °C 1031.4 hPa Calm     94% 0 mm
03:20 4.6 °C 3.7 °C 1031.4 hPa Calm     94% 0 mm
03:25 4.5 °C 3.6 °C 1031.4 hPa Calm     94% 0 mm
03:30 4.4 °C 3.6 °C 1031.4 hPa Calm     94% 0 mm
03:35 4.3 °C 3.4 °C 1031 hPa Calm     94% 0 mm
03:40 4.3 °C 3.4 °C 1031.4 hPa Calm     94% 0 mm
03:45 4.3 °C 3.4 °C 1031 hPa Calm     94% 0 mm
03:50 4.1 °C 3.2 °C 1031.4 hPa Calm     94% 0 mm
03:55 3.9 °C 3 °C 1031.4 hPa Calm     94% 0 mm
04:00 3.9 °C 3 °C 1031.4 hPa Calm     94% 0 mm
04:05 3.8 °C 2.9 °C 1031.4 hPa Calm     94% 0 mm
04:10 3.7 °C 2.8 °C 1031.4 hPa Calm     94% 0 mm
04:15 3.7 °C 2.8 °C 1031.4 hPa Calm     94% 0 mm
04:20 3.6 °C 2.7 °C 1031.4 hPa Calm     94% 0 mm
04:25 3.5 °C 2.6 °C 1031.4 hPa Calm     94% 0 mm
04:30 3.4 °C 2.6 °C 1031.4 hPa Calm     94% 0 mm
04:35 3.5 °C 2.6 °C 1031.4 hPa Calm     94% 0 mm
04:40 3.5 °C 2.8 °C 1031.4 hPa Calm     95% 0 mm
04:45 3.4 °C 2.5 °C 1031.4 hPa Calm     94% 0 mm
04:50 3.4 °C 2.5 °C 1031.4 hPa Calm     94% 0 mm
04:55 3.4 °C 2.6 °C 1031.4 hPa Calm     94% 0 mm
05:00 3.4 °C 2.5 °C 1031.4 hPa Calm     94% 0 mm
05:05 3.3 °C 2.4 °C 1031.7 hPa Calm   1.6 km/h 94% 0 mm
05:10 3.4 °C 2.6 °C 1031.7 hPa Calm   1.6 km/h 94% 0 mm
05:15 3.4 °C 2.6 °C 1031.7 hPa Calm     94% 0 mm
05:20 3.3 °C 2.4 °C 1031.7 hPa Calm     94% 0 mm
05:25 3.3 °C 2.4 °C 1031.7 hPa Calm     94% 0 mm
05:30 3.4 °C 2.5 °C 1031.7 hPa Calm     94% 0 mm
05:34 3.5 °C 2.8 °C 1031.7 hPa Calm     95% 0 mm
05:40 3.8 °C 3.1 °C 1031.7 hPa Calm     95% 0 mm
05:45 3.9 °C 3.2 °C 1031.7 hPa Calm     95% 0 mm
05:50 3.7 °C 3 °C 1031.7 hPa Calm     95% 0 mm
05:54 3.6 °C 2.8 °C 1031.7 hPa Calm     95% 0 mm
06:00 3.5 °C 2.8 °C 1031.7 hPa Calm     95% 0 mm
06:05 3.4 °C 2.7 °C 1031.7 hPa Calm     95% 0 mm
06:10 3.4 °C 2.7 °C 1031.7 hPa Calm     95% 0 mm
06:14 3.3 °C 2.6 °C 1031.7 hPa Calm     95% 0 mm
06:20 3.3 °C 2.6 °C 1031.7 hPa Calm     95% 0 mm
06:25 3.3 °C 2.6 °C 1031.7 hPa Calm     95% 0 mm
06:30 3.3 °C 2.6 °C 1031.7 hPa Calm     95% 0 mm
06:35 3.3 °C 2.6 °C 1032.1 hPa Calm     95% 0 mm
06:40 3.3 °C 2.6 °C 1032.1 hPa Calm     95% 0 mm
06:45 3.4 °C 2.7 °C 1032.1 hPa Calm     95% 0 mm
06:50 3.4 °C 2.7 °C 1032.1 hPa Calm     95% 0 mm
06:54 3.4 °C 2.7 °C 1032.1 hPa Calm     95% 0 mm
07:00 3.5 °C 2.8 °C 1032.1 hPa Calm     95% 0 mm
07:05 3.5 °C 2.8 °C 1032.1 hPa Calm     95% 0 mm
07:10 3.4 °C 2.7 °C 1032.1 hPa Calm     95% 0 mm
07:14 3.3 °C 2.6 °C 1032.4 hPa Calm     95% 0 mm
07:20 3.4 °C 2.7 °C 1032.4 hPa Calm     95% 0 mm
07:25 3.6 °C 2.8 °C 1032.4 hPa Calm     95% 0 mm
07:30 3.7 °C 3 °C 1032.4 hPa Calm     95% 0 mm
07:35 3.8 °C 3.1 °C 1032.4 hPa Calm     95% 0 mm
07:40 4.1 °C 3.3 °C 1032.4 hPa Calm     95% 0 mm
07:45 4.3 °C 3.6 °C 1032.4 hPa Calm     95% 0 mm
07:49 4.4 °C 3.7 °C 1032.4 hPa Calm     95% 0 mm
07:55 4.4 °C 3.7 °C 1032.4 hPa Calm     95% 0 mm
08:00 4.6 °C 3.8 °C 1032.7 hPa Calm     95% 0 mm
08:05 4.8 °C 4.1 °C 1032.4 hPa Calm     95% 0 mm
08:09 4.9 °C 4.2 °C 1032.4 hPa Calm     95% 0 mm
08:15 5.2 °C 4.4 °C 1032.4 hPa Calm     95% 0 mm
08:20 5.7 °C 4.9 °C 1032.4 hPa Calm     95% 0 mm
08:25 6.7 °C 6.1 °C 1032.4 hPa Calm     96% 0 mm
08:30 7.6 °C 7 °C 1032.4 hPa Calm     96% 0 mm
08:35 8.1 °C 7.5 °C 1032.4 hPa Calm     96% 0 mm
08:40 8.3 °C 7.7 °C 1032.4 hPa Calm     96% 0 mm
08:45 8.8 °C 8.2 °C 1032.4 hPa Calm     96% 0 mm
08:50 9 °C 8.4 °C 1032.4 hPa Calm     96% 0 mm
08:54 9.3 °C 8.7 °C 1032.4 hPa Calm     96% 0 mm
09:00 9.8 °C 9.2 °C 1032.4 hPa Calm     96% 0 mm
09:05 10.2 °C 9.6 °C 1032.4 hPa Calm     96% 0 mm
09:10 10.6 °C 9.9 °C 1032.4 hPa Calm     96% 0 mm
09:14 10.8 °C 10.2 °C 1032.4 hPa Calm     96% 0 mm
09:20 11.3 °C 10.6 °C 1032.4 hPa Calm   1.6 km/h 95% 0 mm
09:24 11.5 °C 10.1 °C 1032.4 hPa Calm   3.2 km/h 91% 0 mm
09:30 11.8 °C 9.7 °C 1032.4 hPa NNW 1.6 km/h 6.4 km/h 87% 0 mm
09:35 11.8 °C 8.4 °C 1032.4 hPa NNW 1.6 km/h 6.4 km/h 80% 0 mm
09:40 12 °C 8.3 °C 1032.4 hPa Calm   4.8 km/h 78% 0 mm
09:45 12.4 °C 8.1 °C 1032.4 hPa Calm   3.2 km/h 75% 0 mm
09:49 13 °C 8.7 °C 1032.4 hPa Calm   3.2 km/h 75% 0 mm
09:55 13.5 °C 7.9 °C 1032.7 hPa Calm   3.2 km/h 69% 0 mm
10:00 13.7 °C 7.3 °C 1032.7 hPa Calm   4.8 km/h 65% 0 mm
10:05 14.1 °C 9.2 °C 1032.7 hPa Calm   4.8 km/h 72% 0 mm
10:10 14.6 °C 9.4 °C 1032.4 hPa Calm   1.6 km/h 71% 0 mm
10:14 15 °C 9.2 °C 1032.7 hPa Calm   1.6 km/h 68% 0 mm
10:20 15 °C 8.5 °C 1032.7 hPa Calm   3.2 km/h 65% 0 mm
10:25 15.3 °C 9.2 °C 1032.4 hPa Calm   3.2 km/h 67% 0 mm
10:29 15.6 °C 8.8 °C 1032.7 hPa Calm   3.2 km/h 64% 0 mm
10:34 15.9 °C 9.8 °C 1032.4 hPa Calm   1.6 km/h 67% 0 mm
10:40 16.2 °C 9.4 °C 1032.4 hPa Calm   4.8 km/h 64% 0 mm
10:45 16.6 °C 9.1 °C 1032.4 hPa NE 1.6 km/h 4.8 km/h 61% 0 mm
10:54 17.1 °C 9.3 °C 1032.4 hPa SSW 1.6 km/h 9.7 km/h 60% 0 mm
10:59 17 °C 8.2 °C 1032.4 hPa Calm   9.7 km/h 56% 0 mm
11:04 16.9 °C 8.6 °C 1032.4 hPa SW 1.6 km/h 9.7 km/h 58% 0 mm
11:10 16.9 °C 8.6 °C 1032.4 hPa South 1.6 km/h 8 km/h 58% 0 mm
11:15 16.8 °C 7.9 °C 1032.4 hPa SW 1.6 km/h 12.9 km/h 56% 0 mm
11:19 16.8 °C 7.5 °C 1032.1 hPa WSW 3.2 km/h 12.9 km/h 54% 0 mm
11:25 16.9 °C 7.6 °C 1032.1 hPa SW 3.2 km/h 11.3 km/h 54% 0 mm
11:30 17.1 °C 7.7 °C 1032.1 hPa SW 1.6 km/h 11.3 km/h 54% 0 mm
11:34 17.2 °C 6.9 °C 1032.1 hPa Calm   9.7 km/h 51% 0 mm
11:40 17.3 °C 8.2 °C 1032.1 hPa SW 3.2 km/h 12.9 km/h 55% 0 mm
11:44 17.2 °C 7.2 °C 1032.1 hPa SW 1.6 km/h 12.9 km/h 52% 0 mm
11:50 17.2 °C 8.1 °C 1032.1 hPa SW 1.6 km/h 12.9 km/h 55% 0 mm
11:55 17.4 °C 7.8 °C 1032.1 hPa West 3.2 km/h 11.3 km/h 53% 0 mm
11:59 17.6 °C 6.8 °C 1031.7 hPa SW 4.8 km/h 11.3 km/h 49% 0 mm
12:05 17.8 °C 8.3 °C 1031.7 hPa Calm   11.3 km/h 54% 0 mm
12:10 17.9 °C 7.9 °C 1031.7 hPa SSW 1.6 km/h 8 km/h 52% 0 mm
12:14 18.1 °C 6.6 °C 1031.7 hPa WNW 3.2 km/h 12.9 km/h 47% 0 mm
12:19 18.1 °C 7.6 °C 1031.7 hPa WNW 3.2 km/h 12.9 km/h 50% 0 mm
12:25 18.3 °C 8.3 °C 1031.4 hPa West 1.6 km/h 9.7 km/h 52% 0 mm
12:30 18.5 °C 8.7 °C 1031.4 hPa Calm   8 km/h 53% 0 mm
12:35 18.6 °C 7.7 °C 1031.4 hPa WSW 4.8 km/h 12.9 km/h 49% 0 mm
12:39 18.2 °C 7.3 °C 1031.4 hPa Calm   12.9 km/h 49% 0 mm
12:44 17.9 °C 7.1 °C 1031.4 hPa West 1.6 km/h 12.9 km/h 49% 0 mm
12:49 17.9 °C 7.1 °C 1031.4 hPa SW 6.4 km/h 14.5 km/h 49% 0 mm
12:55 17.7 °C 6.5 °C 1031.4 hPa WSW 1.6 km/h 14.5 km/h 48% 0 mm
12:59 18.1 °C 6.9 °C 1031 hPa SW 1.6 km/h 9.7 km/h 48% 0 mm
13:04 18.2 °C 7.6 °C 1031 hPa Calm   9.7 km/h 50% 0 mm
13:09 18.4 °C 7.6 °C 1031 hPa SW 1.6 km/h 6.4 km/h 49% 0 mm
13:15 18.8 °C 8.4 °C 1031 hPa Calm   6.4 km/h 51% 0 mm
13:19 19.2 °C 9.1 °C 1030.7 hPa Calm   1.6 km/h 52% 0 mm
13:24 19.4 °C 7.6 °C 1030.7 hPa SW 4.8 km/h 9.7 km/h 46% 0 mm
13:29 19.4 °C 8.8 °C 1030.7 hPa SSE 3.2 km/h 9.7 km/h 50% 0 mm
13:35 19.1 °C 7.2 °C 1030.4 hPa Calm   9.7 km/h 46% 0 mm
13:40 19.1 °C 8.1 °C 1030.4 hPa SW 3.2 km/h 9.7 km/h 49% 0 mm
13:44 18.9 °C 8.9 °C 1030.4 hPa Calm   8 km/h 52% 0 mm
13:50 18.9 °C 8.6 °C 1030.4 hPa Calm   6.4 km/h 51% 0 mm
13:54 19.1 °C 6.9 °C 1030.4 hPa Calm   6.4 km/h 45% 0 mm
13:59 18.9 °C 7.4 °C 1030.4 hPa Calm   8 km/h 47% 0 mm
14:04 19.2 °C 8.8 °C 1030 hPa Calm   8 km/h 51% 0 mm
14:09 19.6 °C 8.6 °C 1030 hPa Calm   8 km/h 49% 0 mm
14:15 19.9 °C 9.8 °C 1030 hPa NE 1.6 km/h 11.3 km/h 52% 0 mm
14:19 19.7 °C 7.8 °C 1030 hPa ESE 1.6 km/h 11.3 km/h 46% 0 mm
14:24 19.7 °C 8.7 °C 1029.7 hPa Calm   9.7 km/h 49% 0 mm
14:29 19.9 °C 8.6 °C 1029.7 hPa Calm   6.4 km/h 48% 0 mm
14:35 19.8 °C 8.2 °C 1029.7 hPa Calm   6.4 km/h 47% 0 mm
14:45 18.7 °C 10.1 °C 1029.7 hPa Calm   6.4 km/h 57% 0 mm
14:50 18.4 °C 9.5 °C 1029.3 hPa Calm   3.2 km/h 56% 0 mm
14:54 18.2 °C 9.8 °C 1029.3 hPa Calm   1.6 km/h 58% 0 mm
14:59 18 °C 8.8 °C 1029.3 hPa Calm   1.6 km/h 55% 0 mm
15:05 18.4 °C 8.4 °C 1029.3 hPa North 1.6 km/h 6.4 km/h 52% 0 mm
15:09 18.9 °C 8.6 °C 1029 hPa Calm   8 km/h 51% 0 mm
15:14 19.2 °C 7.3 °C 1029 hPa NNE 1.6 km/h 8 km/h 46% 0 mm
15:20 19.2 °C 8.6 °C 1029 hPa NE 1.6 km/h 8 km/h 50% 0 mm
15:24 19.4 °C 9.1 °C 1029 hPa Calm   6.4 km/h 51% 0 mm
15:30 19.6 °C 8.6 °C 1029 hPa NE 1.6 km/h 9.7 km/h 49% 0 mm
15:35 19.5 °C 9.1 °C 1029 hPa Calm   9.7 km/h 51% 0 mm
15:40 19.4 °C 6.6 °C 1029 hPa ENE 1.6 km/h 8 km/h 43% 0 mm
15:45 19.2 °C 8.8 °C 1028.7 hPa South 1.6 km/h 12.9 km/h 51% 0 mm
15:49 19.2 °C 7.7 °C 1028.7 hPa Calm   12.9 km/h 47% 0 mm
15:55 19.2 °C 7 °C 1028.7 hPa Calm   8 km/h 45% 0 mm
15:59 19.2 °C 7.9 °C 1028.7 hPa SW 1.6 km/h 8 km/h 48% 0 mm
16:04 19.4 °C 7.6 °C 1028.7 hPa Calm   4.8 km/h 46% 0 mm
16:10 19.7 °C 8.4 °C 1028.7 hPa Calm   4.8 km/h 48% 0 mm
16:14 19.8 °C 6.9 °C 1028.7 hPa Calm   4.8 km/h 43% 0 mm
16:19 19.8 °C 7.2 °C 1028.7 hPa Calm   6.4 km/h 44% 0 mm
16:25 19.7 °C 7.4 °C 1028.7 hPa Calm   8 km/h 45% 0 mm
16:29 19.6 °C 8.6 °C 1028.3 hPa Calm   8 km/h 49% 0 mm
16:34 19.7 °C 7.4 °C 1028.3 hPa NNE 1.6 km/h 11.3 km/h 45% 0 mm
16:39 19.6 °C 7.7 °C 1028.3 hPa Calm   11.3 km/h 46% 0 mm
16:44 19.7 °C 7.4 °C 1028.3 hPa Calm   3.2 km/h 45% 0 mm
16:49 19.7 °C 7.1 °C 1028.3 hPa NE 1.6 km/h 6.4 km/h 44% 0 mm
16:55 19.7 °C 7.4 °C 1028.3 hPa Calm   6.4 km/h 45% 0 mm
16:59 19.6 °C 7.7 °C 1028.3 hPa Calm   4.8 km/h 46% 0 mm
17:04 19.7 °C 7.4 °C 1028.3 hPa Calm   4.8 km/h 45% 0 mm
17:10 19.3 °C 7.1 °C 1028.3 hPa Calm   3.2 km/h 45% 0 mm
17:15 19.3 °C 8.3 °C 1028.3 hPa Calm   1.6 km/h 49% 0 mm
17:19 19.6 °C 7.9 °C 1028.3 hPa WNW 1.6 km/h 6.4 km/h 47% 0 mm
17:25 19.7 °C 9.8 °C 1028.3 hPa Calm   8 km/h 53% 0 mm
17:29 19.4 °C 8.4 °C 1028.3 hPa Calm   9.7 km/h 49% 0 mm
17:35 19.1 °C 8.7 °C 1028.3 hPa NW 3.2 km/h 9.7 km/h 51% 0 mm
17:39 18.8 °C 9 °C 1028.3 hPa Calm   9.7 km/h 53% 0 mm
17:45 18.5 °C 8.7 °C 1028.3 hPa NW 1.6 km/h 9.7 km/h 53% 0 mm
17:49 18.2 °C 9.1 °C 1028.3 hPa Calm   8 km/h 55% 0 mm
17:54 18.1 °C 9.4 °C 1028.3 hPa NW 1.6 km/h 8 km/h 57% 0 mm
17:59 17.9 °C 9.1 °C 1028.3 hPa Calm   6.4 km/h 56% 0 mm
18:05 17.6 °C 8.7 °C 1028.3 hPa Calm   6.4 km/h 56% 0 mm
18:09 17.2 °C 8.8 °C 1028.3 hPa Calm   1.6 km/h 58% 0 mm
18:14 16.6 °C 9.1 °C 1028.3 hPa Calm   1.6 km/h 61% 0 mm
18:20 16.2 °C 8.9 °C 1028.3 hPa Calm     62% 0 mm
18:24 15.8 °C 9.1 °C 1028.3 hPa Calm     64% 0 mm
18:29 15.4 °C 8.9 °C 1028.3 hPa Calm     65% 0 mm
18:34 15 °C 8.5 °C 1028.3 hPa Calm     65% 0 mm
18:40 14.7 °C 8.8 °C 1028 hPa Calm     68% 0 mm
18:45 13.9 °C 8.6 °C 1028 hPa Calm   3.2 km/h 70% 0 mm
18:49 13.2 °C 8.1 °C 1028 hPa Calm   3.2 km/h 71% 0 mm
18:54 12.7 °C 7.9 °C 1028 hPa Calm   1.6 km/h 73% 0 mm
19:00 12 °C 7.9 °C 1028 hPa Calm   1.6 km/h 76% 0 mm
19:04 11.4 °C 7.7 °C 1028 hPa Calm     78% 0 mm
19:09 11 °C 7.5 °C 1028 hPa Calm     79% 0 mm
19:15 10.7 °C 7.3 °C 1028 hPa Calm     80% 0 mm
19:19 10.3 °C 7.2 °C 1028 hPa Calm     81% 0 mm
19:24 9.9 °C 6.9 °C 1028 hPa Calm     82% 0 mm
19:29 9.7 °C 7 °C 1028 hPa Calm     83% 0 mm
19:35 9.6 °C 6.8 °C 1028 hPa Calm     83% 0 mm
19:40 9.2 °C 6.5 °C 1028 hPa Calm     83% 0 mm
19:44 8.9 °C 6.4 °C 1028 hPa Calm     84% 0 mm
19:50 8.8 °C 6.2 °C 1028 hPa Calm     84% 0 mm
19:55 8.6 °C 6.2 °C 1028 hPa Calm     85% 0 mm
20:05 8.4 °C 6.2 °C 1028 hPa Calm     86% 0 mm
20:10 8.2 °C 6 °C 1028 hPa Calm     86% 0 mm
20:15 8.1 °C 6 °C 1028 hPa Calm     87% 0 mm
20:20 7.9 °C 5.9 °C 1028 hPa Calm     87% 0 mm
20:25 7.9 °C 5.8 °C 1028 hPa Calm     87% 0 mm
20:30 7.8 °C 5.9 °C 1028 hPa Calm     88% 0 mm
20:35 7.7 °C 5.8 °C 1028 hPa Calm     88% 0 mm
20:45 7.4 °C 5.6 °C 1028 hPa Calm     88% 0 mm
20:50 7.3 °C 5.4 °C 1028 hPa Calm     88% 0 mm
20:55 7.2 °C 5.6 °C 1028 hPa Calm     89% 0 mm
21:00 7.2 °C 5.6 °C 1028 hPa Calm     89% 0 mm
21:05 7.2 °C 5.6 °C 1028 hPa Calm     89% 0 mm
21:10 7.2 °C 5.6 °C 1028.3 hPa Calm     90% 0 mm
21:15 7.2 °C 5.6 °C 1028 hPa Calm     90% 0 mm
21:20 7.1 °C 5.6 °C 1028 hPa Calm     90% 0 mm
21:25 7 °C 5.5 °C 1028 hPa Calm     90% 0 mm
21:30 7 °C 5.6 °C 1028 hPa Calm     91% 0 mm
21:40 6.9 °C 5.5 °C 1028 hPa Calm     91% 0 mm
21:45 6.8 °C 5.4 °C 1028 hPa Calm     91% 0 mm
21:50 6.7 °C 5.3 °C 1028 hPa Calm     91% 0 mm
21:55 6.6 °C 5.2 °C 1028 hPa Calm     91% 0 mm
22:00 6.6 °C 5.2 °C 1028 hPa Calm     91% 0 mm
22:05 6.5 °C 5.1 °C 1028 hPa Calm     91% 0 mm
22:15 6.4 °C 5.2 °C 1028 hPa Calm     92% 0 mm
22:20 6.4 °C 5.2 °C 1028 hPa Calm     92% 0 mm
22:30 6.4 °C 5.2 °C 1028 hPa Calm     92% 0 mm
22:40 6.4 °C 5.2 °C 1028 hPa Calm     92% 0 mm
22:45 6.3 °C 5.1 °C 1028 hPa Calm     92% 0 mm
22:50 6.2 °C 4.9 °C 1028 hPa Calm     92% 0 mm
22:55 6.2 °C 4.9 °C 1028 hPa Calm     92% 0 mm
23:00 6.1 °C 4.9 °C 1028 hPa Calm     92% 0 mm
23:05 6 °C 4.8 °C 1028 hPa Calm     92% 0 mm
23:10 5.9 °C 4.7 °C 1028 hPa Calm     92% 0 mm
23:20 5.9 °C 4.9 °C 1028 hPa Calm     93% 0 mm
23:25 6.1 °C 5 °C 1028 hPa Calm     93% 0 mm
23:30 6 °C 4.9 °C 1028 hPa Calm     93% 0 mm
23:35 5.9 °C 4.9 °C 1028 hPa Calm     93% 0 mm
23:40 5.9 °C 4.8 °C 1027.7 hPa Calm     93% 0 mm
23:45 5.8 °C 4.8 °C 1027.7 hPa Calm     93% 0 mm
23:50 5.9 °C 5.1 °C 1028 hPa Calm     94% 0 mm
23:55 5.9 °C 5 °C 1028 hPa Calm     94% 0 mm
Westford Weather
Compliments of Weather Underground

 
 
Current Radar Loop:

Copyright © WestfordWeather.net 2007-2014. All rights reserved.